Time;durP1;ratioP1;P1;durP2;ratioP2;P2;SDS_P1;SDS_P2;PMS_P1;PMS_P2;Temp;Humidity;BMP_temperature;BMP_pressure;BME280_temperature;BME280_humidity;BME280_pressure;Samples;Min_cycle;Max_cycle;Signal;HPM_P1;HPM_P2
2021/12/21 00:02:06;;;;;;;14.80;6.10;;;;;;;1.66;84.77;101711.22;5007971;28;20075;-75
2021/12/21 00:04:32;;;;;;;14.00;5.18;;;;;;;1.71;84.97;101708.84;5006423;28;20034;-75
2021/12/21 00:06:57;;;;;;;14.68;5.20;;;;;;;1.80;85.08;101703.19;5002652;28;20044;-75
2021/12/21 00:09:22;;;;;;;12.43;5.47;;;;;;;1.87;84.54;101702.69;5000050;28;20034;-75
2021/12/21 00:11:49;;;;;;;11.25;5.13;;;;;;;1.92;84.49;101707.28;5003297;28;20030;-76
2021/12/21 00:14:26;;;;;;;14.32;4.90;;;;;;;1.98;84.20;101709.28;4998449;28;20046;-75
2021/12/21 00:17:15;;;;;;;12.57;5.78;;;;;;;2.05;84.33;101707.88;5000663;28;20096;-75
2021/12/21 00:22:17;;;;;;;15.20;5.70;;;;;;;2.04;83.40;101699.13;5003036;28;20041;-76
2021/12/21 00:24:47;;;;;;;11.15;5.00;;;;;;;2.07;83.89;101690.59;4982160;28;20037;-75
2021/12/21 00:27:14;;;;;;;11.57;5.22;;;;;;;2.02;83.36;101698.19;5002505;28;20056;-76
2021/12/21 00:29:39;;;;;;;9.57;4.47;;;;;;;1.96;83.52;101693.59;4999964;28;20046;-76
2021/12/21 00:32:05;;;;;;;10.65;4.88;;;;;;;1.99;83.97;101705.84;5003015;28;20040;-76
2021/12/21 00:34:31;;;;;;;11.18;4.80;;;;;;;1.90;84.16;101695.00;4999009;28;20026;-76
2021/12/21 00:36:57;;;;;;;10.45;5.00;;;;;;;1.81;83.75;101692.88;5003012;28;20049;-76
2021/12/21 00:39:22;;;;;;;12.40;4.75;;;;;;;1.81;84.30;101689.34;4999839;28;20042;-76
2021/12/21 00:41:47;;;;;;;13.70;5.30;;;;;;;1.80;84.36;101674.56;5002294;28;20400;-75
2021/12/21 00:44:13;;;;;;;12.30;5.70;;;;;;;1.81;84.70;101672.03;5000617;28;20421;-76
2021/12/21 00:46:39;;;;;;;15.23;5.72;;;;;;;1.80;84.33;101675.44;5003451;28;20038;-76
2021/12/21 00:49:13;;;;;;;11.75;4.85;;;;;;;1.74;84.69;101675.16;5005005;28;20049;-75
2021/12/21 00:51:40;;;;;;;12.43;5.35;;;;;;;1.77;84.59;101684.84;5004441;28;20065;-76
2021/12/21 00:54:06;;;;;;;14.57;5.47;;;;;;;1.74;84.65;101681.25;5004081;28;20044;-76
2021/12/21 00:56:31;;;;;;;13.57;5.80;;;;;;;1.77;84.54;101690.03;5008137;28;20126;-76
2021/12/21 00:58:56;;;;;;;10.77;4.70;;;;;;;1.61;85.42;101698.81;5007060;28;20066;-76
2021/12/21 01:01:22;;;;;;;12.23;5.72;;;;;;;1.55;85.00;101699.41;5005328;28;20385;-76
2021/12/21 01:03:51;;;;;;;11.50;5.30;;;;;;;1.46;85.40;101709.34;5003650;28;20621;-76
2021/12/21 01:06:37;;;;;;;13.63;6.05;;;;;;;1.42;85.73;101702.22;5005081;28;20041;-76
2021/12/21 01:09:12;;;;;;;16.85;7.28;;;;;;;1.36;85.92;101699.31;5006087;28;20466;-75
2021/12/21 01:11:46;;;;;;;16.35;6.95;;;;;;;1.38;86.09;101700.28;4988841;28;20129;-75
2021/12/21 01:14:51;;;;;;;15.63;7.05;;;;;;;1.37;86.28;101702.00;5003785;28;20038;-76
2021/12/21 01:17:17;;;;;;;12.82;6.30;;;;;;;1.42;86.00;101692.72;5002775;28;20108;-75
2021/12/21 01:19:47;;;;;;;15.45;7.10;;;;;;;1.52;86.36;101688.88;5004402;28;20033;-76
2021/12/21 01:22:31;;;;;;;15.70;7.53;;;;;;;1.61;85.72;101691.91;5004500;28;20065;-76
2021/12/21 01:30:17;;;;;;;14.00;6.72;;;;;;;1.60;85.22;101703.13;5002309;28;20144;-75
2021/12/21 01:35:19;;;;;;;18.33;8.32;;;;;;;1.53;85.31;101686.31;5003889;28;20214;-76
2021/12/21 01:38:38;;;;;;;19.13;8.10;;;;;;;1.55;85.76;101689.00;5002180;28;20601;-75
2021/12/21 01:51:03;;;;;;;18.60;7.47;;;;;;;1.48;85.68;101692.13;5002258;28;20049;-75
2021/12/21 01:53:29;;;;;;;18.55;8.98;;;;;;;1.43;85.79;101685.78;5005188;28;20038;-75
2021/12/21 01:55:54;;;;;;;14.32;9.00;;;;;;;1.40;85.67;101689.13;5002387;28;20034;-76
2021/12/21 01:58:20;;;;;;;20.75;10.05;;;;;;;1.43;85.76;101691.00;5007744;28;20400;-76
2021/12/21 02:00:47;;;;;;;17.10;9.13;;;;;;;1.42;85.85;101684.91;5003432;28;20695;-76
2021/12/21 02:03:15;;;;;;;17.00;9.00;;;;;;;1.46;85.62;101688.53;5003944;28;20080;-76
2021/12/21 02:05:40;;;;;;;15.88;8.85;;;;;;;1.51;85.74;101687.06;5003500;28;20033;-75
2021/12/21 02:08:05;;;;;;;17.92;8.52;;;;;;;1.45;85.99;101677.25;5003182;28;20046;-76
2021/12/21 02:10:31;;;;;;;15.20;8.20;;;;;;;1.52;85.83;101673.25;5003050;28;20030;-76
2021/12/21 02:12:56;;;;;;;20.55;10.82;;;;;;;1.59;85.45;101671.81;5002198;28;20117;-76
2021/12/21 02:15:24;;;;;;;17.88;9.65;;;;;;;1.53;85.22;101675.03;5004401;28;20185;-76
2021/12/21 02:18:24;;;;;;;19.58;9.13;;;;;;;1.49;85.58;101666.19;4981068;28;20078;-76
2021/12/21 02:20:50;;;;;;;20.73;10.20;;;;;;;1.47;85.60;101672.13;5007014;28;20520;-76
2021/12/21 02:23:22;;;;;;;21.70;10.55;;;;;;;1.53;85.65;101667.22;4992546;28;20034;-75
2021/12/21 02:26:06;;;;;;;17.57;9.27;;;;;;;1.60;85.94;101669.31;5004029;28;20050;-75
2021/12/21 02:28:48;;;;;;;21.33;9.73;;;;;;;1.64;85.44;101663.41;5003152;28;20631;-75
2021/12/21 02:31:16;;;;;;;17.58;10.50;;;;;;;1.60;84.81;101666.72;4984554;28;20061;-75
2021/12/21 02:33:42;;;;;;;16.67;8.15;;;;;;;1.56;85.47;101659.56;5004056;28;20038;-75
2021/12/21 02:36:07;;;;;;;18.02;9.57;;;;;;;1.59;85.73;101651.88;5001190;28;20045;-75
2021/12/21 02:38:32;;;;;;;19.73;9.90;;;;;;;1.61;85.20;101652.84;5004677;28;20407;-75
2021/12/21 02:40:58;;;;;;;14.93;9.13;;;;;;;1.64;85.06;101655.59;5001179;28;20501;-75
2021/12/21 02:43:23;;;;;;;22.80;10.13;;;;;;;1.59;85.11;101651.88;5004291;28;20397;-75
2021/12/21 02:45:49;;;;;;;17.73;9.73;;;;;;;1.61;85.43;101654.56;5001391;28;20423;-75
2021/12/21 02:48:14;;;;;;;18.13;9.57;;;;;;;1.65;85.45;101649.59;5007109;28;20045;-76
2021/12/21 02:50:41;;;;;;;17.73;9.68;;;;;;;1.74;84.77;101652.63;5002275;28;20464;-75
2021/12/21 02:53:08;;;;;;;24.80;10.65;;;;;;;1.83;85.05;101653.88;5002754;28;20041;-76
2021/12/21 02:55:34;;;;;;;18.33;10.70;;;;;;;1.82;84.80;101649.50;5002442;28;20037;-76
2021/12/21 02:58:00;;;;;;;18.35;9.65;;;;;;;1.88;84.94;101644.56;5002198;28;20061;-76
2021/12/21 03:00:26;;;;;;;22.58;9.93;;;;;;;1.94;84.88;101645.78;5003277;28;20455;-76
2021/12/21 03:02:52;;;;;;;17.02;9.93;;;;;;;1.99;84.58;101648.56;5001526;28;20120;-76
2021/12/21 03:05:18;;;;;;;20.40;11.02;;;;;;;2.00;84.26;101642.56;5002025;28;20116;-75
2021/12/21 03:08:04;;;;;;;16.92;9.75;;;;;;;2.05;84.13;101642.78;5000782;28;20034;-75
2021/12/21 03:10:29;;;;;;;19.38;10.55;;;;;;;2.03;84.07;101645.28;5000796;28;20113;-75
2021/12/21 03:15:38;;;;;;;18.95;9.50;;;;;;;2.06;83.51;101647.16;5000482;28;20402;-75
2021/12/21 03:18:03;;;;;;;20.33;10.00;;;;;;;2.08;83.90;101641.19;5004044;28;20048;-75
2021/12/21 03:20:29;;;;;;;18.92;9.73;;;;;;;2.11;83.96;101636.13;5000454;28;20031;-75
2021/12/21 03:22:55;;;;;;;19.10;11.15;;;;;;;2.06;83.56;101635.00;5003440;28;20377;-76
2021/12/21 03:25:20;;;;;;;18.52;10.18;;;;;;;2.02;83.42;101635.72;5000720;28;20042;-76
2021/12/21 03:27:46;;;;;;;18.17;10.65;;;;;;;1.94;83.64;101629.25;5002710;28;20038;-76
2021/12/21 03:30:13;;;;;;;21.67;9.90;;;;;;;1.85;83.50;101629.69;5004332;28;20044;-76
2021/12/21 03:32:39;;;;;;;23.60;10.98;;;;;;;1.81;84.21;101622.59;5010560;28;20040;-76
2021/12/21 03:35:06;;;;;;;18.08;11.02;;;;;;;1.86;84.26;101625.38;5001772;28;20458;-76
2021/12/21 03:37:32;;;;;;;19.90;11.75;;;;;;;1.76;84.23;101616.28;5000672;28;20044;-76
2021/12/21 03:40:00;;;;;;;21.45;11.25;;;;;;;1.77;84.77;101610.22;5008977;28;20037;-75
2021/12/21 03:42:26;;;;;;;21.35;10.50;;;;;;;1.83;84.31;101614.84;4999652;28;20410;-75
2021/12/21 03:44:51;;;;;;;22.55;11.82;;;;;;;1.79;84.87;101621.63;5002339;28;20046;-75
2021/12/21 03:47:17;;;;;;;23.48;11.10;;;;;;;1.78;84.67;101618.94;5000549;28;20481;-76
2021/12/21 03:52:14;;;;;;;27.27;11.88;;;;;;;1.68;84.62;101610.72;4999914;28;20044;-76
2021/12/21 03:54:44;;;;;;;21.27;11.23;;;;;;;1.60;85.20;101608.53;4999640;28;20081;-75
2021/12/21 03:57:09;;;;;;;18.33;11.40;;;;;;;1.52;85.31;101603.00;4985403;28;20045;-76
2021/12/21 03:59:35;;;;;;;20.77;11.43;;;;;;;1.45;85.87;101608.72;4998688;28;20034;-76
2021/12/21 04:02:01;;;;;;;26.17;13.38;;;;;;;1.45;86.09;101607.00;5003483;28;20057;-75
2021/12/21 04:04:26;;;;;;;24.95;12.35;;;;;;;1.45;85.93;101606.13;5005747;28;20080;-76
2021/12/21 04:06:53;;;;;;;18.58;11.48;;;;;;;1.51;86.10;101606.41;4982793;28;20497;-76
2021/12/21 04:09:18;;;;;;;23.92;12.10;;;;;;;1.49;85.90;101610.63;5002639;28;20088;-76
2021/12/21 04:11:44;;;;;;;22.60;12.85;;;;;;;1.47;85.86;101610.56;4983296;28;20041;-75
2021/12/21 04:14:10;;;;;;;22.47;11.60;;;;;;;1.47;86.15;101610.56;5001678;28;20125;-75
2021/12/21 04:16:36;;;;;;;23.55;12.77;;;;;;;1.41;86.03;101605.06;5001090;28;20037;-75
2021/12/21 04:19:02;;;;;;;20.63;10.25;;;;;;;1.45;86.55;101607.00;4996954;28;20133;-75
2021/12/21 04:21:27;;;;;;;21.42;12.15;;;;;;;1.40;86.44;101607.59;4990383;28;20033;-75
2021/12/21 04:23:53;;;;;;;21.90;11.82;;;;;;;1.50;86.20;101600.31;5008609;28;20088;-75
2021/12/21 04:26:20;;;;;;;25.38;13.52;;;;;;;1.51;86.48;101599.47;5008104;28;20034;-74
2021/12/21 04:28:46;;;;;;;19.25;12.00;;;;;;;1.47;86.17;101597.56;5008348;28;20041;-75
2021/12/21 04:31:12;;;;;;;24.85;13.73;;;;;;;1.40;86.46;101592.88;5005761;28;20136;-75
2021/12/21 04:33:39;;;;;;;26.35;13.43;;;;;;;1.33;86.67;101590.81;5006143;28;20034;-75
2021/12/21 04:36:05;;;;;;;20.30;12.32;;;;;;;1.26;86.97;101576.63;4992516;28;20030;-75
2021/12/21 04:38:35;;;;;;;23.38;12.25;;;;;;;1.23;87.23;101583.38;5016990;28;20038;-75
2021/12/21 04:41:14;;;;;;;21.52;12.02;;;;;;;1.23;87.29;101579.09;5006798;28;20480;-75
2021/12/21 04:43:41;;;;;;;24.38;13.20;;;;;;;1.23;87.24;101572.97;5004370;28;20045;-75
2021/12/21 04:46:08;;;;;;;22.40;12.48;;;;;;;1.24;87.05;101569.56;5005777;28;20536;-75
2021/12/21 04:48:34;;;;;;;31.65;12.88;;;;;;;1.19;86.91;101587.53;5005312;28;20049;-75
2021/12/21 04:51:00;;;;;;;20.10;11.95;;;;;;;1.13;87.23;101596.72;5010195;28;20037;-76
2021/12/21 04:53:25;;;;;;;21.08;10.93;;;;;;;1.04;87.62;101605.88;5003023;28;20157;-75
2021/12/21 04:55:51;;;;;;;28.10;13.55;;;;;;;0.96;88.36;101593.31;4988344;28;20164;-76
2021/12/21 04:58:17;;;;;;;21.65;12.15;;;;;;;1.00;88.46;101595.25;5011831;28;20038;-76
2021/12/21 05:00:42;;;;;;;22.67;12.40;;;;;;;1.10;88.09;101597.47;5008004;28;20045;-76
2021/12/21 05:03:08;;;;;;;25.35;12.50;;;;;;;0.94;88.13;101598.44;5011359;28;20037;-76
2021/12/21 05:05:33;;;;;;;26.15;13.10;;;;;;;0.93;88.41;101594.06;4999236;28;20037;-76
2021/12/21 05:08:08;;;;;;;20.48;10.73;;;;;;;0.81;89.06;101599.53;5004442;28;20204;-75
2021/12/21 05:10:47;;;;;;;21.10;12.93;;;;;;;0.78;89.52;101607.16;5009407;28;20037;-76
2021/12/21 05:13:14;;;;;;;21.48;12.27;;;;;;;0.78;90.08;101609.75;5003208;28;20096;-75
2021/12/21 05:15:40;;;;;;;24.15;13.20;;;;;;;0.83;90.02;101602.22;5005870;28;20048;-76
2021/12/21 05:18:06;;;;;;;22.23;12.95;;;;;;;0.81;89.81;101612.53;5002764;28;20045;-75
2021/12/21 05:20:31;;;;;;;19.60;13.07;;;;;;;0.85;89.63;101603.19;5005768;28;20416;-75
2021/12/21 05:22:56;;;;;;;24.17;13.23;;;;;;;0.80;89.95;101602.94;5002739;28;20951;-75
2021/12/21 05:25:22;;;;;;;23.85;12.57;;;;;;;0.83;90.18;101597.00;5005128;28;20038;-75
2021/12/21 05:27:47;;;;;;;26.30;11.85;;;;;;;0.85;89.92;101601.47;5013710;28;20041;-76
2021/12/21 05:30:13;;;;;;;21.02;13.02;;;;;;;0.85;89.92;101605.78;5013402;28;20026;-74
2021/12/21 05:32:39;;;;;;;19.75;12.77;;;;;;;0.88;90.09;101599.00;5010249;28;20041;-74
2021/12/21 05:35:05;;;;;;;22.08;12.63;;;;;;;0.85;90.08;101605.78;5012529;28;20044;-75
2021/12/21 05:37:31;;;;;;;26.83;12.65;;;;;;;0.96;89.55;101603.72;5011292;28;20116;-75
2021/12/21 05:40:08;;;;;;;22.57;12.80;;;;;;;0.93;89.64;101593.16;5006369;28;20564;-74
2021/12/21 05:42:33;;;;;;;24.67;13.30;;;;;;;0.95;89.50;101595.03;5002744;28;20035;-75
2021/12/21 05:44:58;;;;;;;24.60;13.98;;;;;;;0.96;89.33;101593.31;5002449;28;20044;-75
2021/12/21 05:47:24;;;;;;;26.17;13.13;;;;;;;1.02;89.24;101598.81;5003378;28;20042;-76
2021/12/21 05:49:49;;;;;;;25.38;14.30;;;;;;;1.00;89.06;101601.34;5004895;28;20049;-75
2021/12/21 05:52:14;;;;;;;21.75;13.13;;;;;;;1.01;89.08;101612.63;5002177;28;20034;-75
2021/12/21 05:54:40;;;;;;;29.00;15.90;;;;;;;1.02;88.85;101611.81;5005138;28;20041;-75
2021/12/21 05:57:05;;;;;;;22.17;13.70;;;;;;;1.08;88.88;101619.94;5006136;28;20041;-76
2021/12/21 05:59:31;;;;;;;23.85;16.38;;;;;;;1.04;88.43;101617.97;5009290;28;20057;-75
2021/12/21 06:01:56;;;;;;;26.95;13.90;;;;;;;1.12;88.45;101616.66;5010164;28;20042;-75
2021/12/21 06:04:23;;;;;;;22.88;14.18;;;;;;;1.17;88.42;101609.97;5008720;28;20033;-76
2021/12/21 06:06:48;;;;;;;29.27;15.63;;;;;;;1.14;88.46;101615.03;5007336;28;20112;-76
2021/12/21 06:09:14;;;;;;;24.83;14.82;;;;;;;1.07;87.84;101607.72;5006673;28;20184;-76
2021/12/21 06:12:20;;;;;;;22.83;13.85;;;;;;;1.10;87.86;101615.69;5003260;28;20045;-76
2021/12/21 06:22:46;;;;;;;23.95;17.20;;;;;;;1.21;88.10;101619.72;5001726;28;20034;-75
2021/12/21 06:27:51;;;;;;;31.48;19.50;;;;;;;1.25;87.91;101624.22;5001590;28;20407;-75
2021/12/21 06:30:17;;;;;;;29.92;18.27;;;;;;;1.30;86.74;101624.47;5004212;28;20038;-75
2021/12/21 06:32:42;;;;;;;34.92;20.98;;;;;;;1.22;87.57;101621.50;5007727;28;20116;-75
2021/12/21 06:35:08;;;;;;;33.28;20.00;;;;;;;1.28;87.58;101634.81;5004276;28;20065;-76
2021/12/21 06:37:34;;;;;;;33.70;19.65;;;;;;;1.25;87.65;101624.22;5005816;28;20108;-75
2021/12/21 06:39:59;;;;;;;35.00;19.20;;;;;;;1.17;86.80;101615.16;5008887;28;20086;-74
2021/12/21 06:42:26;;;;;;;32.53;18.70;;;;;;;1.08;87.46;101619.94;4990282;28;20069;-76
2021/12/21 06:44:56;;;;;;;36.83;20.73;;;;;;;0.99;88.13;101615.16;4992593;28;20100;-75
2021/12/21 06:52:51;;;;;;;28.63;17.40;;;;;;;0.91;88.12;101620.78;5002998;28;20040;-75
2021/12/21 06:55:17;;;;;;;28.42;17.80;;;;;;;0.91;88.34;101626.88;4992052;28;20494;-76
2021/12/21 06:57:43;;;;;;;30.35;19.55;;;;;;;0.91;88.28;101618.19;4986720;28;20041;-76
2021/12/21 07:00:16;;;;;;;37.53;20.48;;;;;;;0.99;88.32;101624.66;5002145;28;20034;-75
2021/12/21 07:02:42;;;;;;;33.03;20.37;;;;;;;1.01;88.32;101628.22;5009468;28;20045;-75
2021/12/21 07:05:09;;;;;;;33.33;19.52;;;;;;;1.02;88.84;101630.00;5007242;28;20064;-75
2021/12/21 07:07:34;;;;;;;33.35;18.75;;;;;;;1.14;88.05;101628.03;5002617;28;20031;-76
2021/12/21 07:10:03;;;;;;;33.70;18.83;;;;;;;1.10;87.06;101626.06;5002203;28;20122;-75
2021/12/21 07:18:14;;;;;;;35.67;17.75;;;;;;;1.08;87.14;101636.41;5001293;28;20042;-75
2021/12/21 07:20:39;;;;;;;36.58;19.88;;;;;;;1.15;87.14;101632.41;5000569;28;20489;-75
2021/12/21 07:23:05;;;;;;;32.50;19.73;;;;;;;1.26;87.13;101626.03;5003978;28;20038;-75
2021/12/21 07:25:31;;;;;;;30.77;17.98;;;;;;;1.33;86.83;101626.31;5002514;28;20045;-76
2021/12/21 07:27:56;;;;;;;33.72;17.70;;;;;;;1.33;86.35;101628.94;5000323;28;20116;-75
2021/12/21 07:30:22;;;;;;;37.20;19.75;;;;;;;1.38;85.72;101637.84;5006185;28;20500;-75
2021/12/21 07:32:48;;;;;;;33.97;19.67;;;;;;;1.38;86.08;101624.84;4999454;28;20034;-74
2021/12/21 07:35:14;;;;;;;37.65;20.27;;;;;;;1.41;85.92;101630.19;5000930;28;20031;-76
2021/12/21 07:37:39;;;;;;;33.65;17.95;;;;;;;1.40;85.75;101625.81;5001069;28;20073;-75
2021/12/21 07:40:06;;;;;;;34.47;20.67;;;;;;;1.43;85.45;101631.16;4999068;28;20053;-76
2021/12/21 07:42:31;;;;;;;34.55;20.65;;;;;;;1.45;85.67;101637.34;5009028;28;20052;-75
2021/12/21 07:44:57;;;;;;;29.15;18.90;;;;;;;1.46;86.00;101637.38;5006271;28;20030;-75
2021/12/21 07:47:22;;;;;;;35.10;18.45;;;;;;;1.42;85.64;101637.19;5003879;28;20126;-76
2021/12/21 07:49:48;;;;;;;30.08;18.73;;;;;;;1.32;85.43;101633.25;5003559;28;20452;-76
2021/12/21 07:52:14;;;;;;;31.77;20.38;;;;;;;1.26;85.85;101631.25;5007956;28;20488;-76
2021/12/21 07:54:40;;;;;;;31.83;18.50;;;;;;;1.20;85.71;101636.13;4982034;28;20038;-76
2021/12/21 07:57:09;;;;;;;37.58;19.58;;;;;;;1.23;85.72;101640.59;5011170;28;20101;-78
2021/12/21 07:59:39;;;;;;;32.03;18.85;;;;;;;1.30;85.71;101640.06;5010157;28;20065;-77
2021/12/21 08:02:05;;;;;;;36.85;21.15;;;;;;;1.31;86.19;101650.56;5013789;28;20048;-78
2021/12/21 08:04:33;;;;;;;31.63;18.58;;;;;;;1.44;85.95;101645.94;5012922;28;20637;-79
2021/12/21 08:07:05;;;;;;;29.60;18.95;;;;;;;1.45;85.12;101655.56;5014001;28;20030;-77
2021/12/21 08:09:37;;;;;;;34.13;19.73;;;;;;;1.45;85.35;101658.16;5009718;28;20105;-77
2021/12/21 08:14:37;;;;;;;32.97;19.30;;;;;;;1.39;85.56;101669.16;5014848;28;20060;-78
2021/12/21 08:17:03;;;;;;;30.30;18.02;;;;;;;1.48;85.71;101663.50;5013549;28;20548;-77
2021/12/21 08:19:28;;;;;;;31.48;18.95;;;;;;;1.49;85.62;101668.78;5014991;28;20060;-78
2021/12/21 08:21:53;;;;;;;31.70;18.38;;;;;;;1.58;85.40;101668.34;5018126;28;20031;-77
2021/12/21 08:24:19;;;;;;;31.08;17.95;;;;;;;1.68;84.81;101665.34;5019223;28;20287;-77
2021/12/21 08:26:44;;;;;;;29.92;18.30;;;;;;;1.66;84.61;101659.19;5018217;28;20057;-78
2021/12/21 08:29:10;;;;;;;35.00;19.45;;;;;;;1.64;84.91;101665.13;5017760;28;20041;-78
2021/12/21 08:31:35;;;;;;;26.63;18.25;;;;;;;1.65;84.93;101672.09;5002802;28;20061;-77
2021/12/21 08:34:01;;;;;;;27.48;18.98;;;;;;;1.58;84.77;101668.34;5019019;28;20505;-78
2021/12/21 08:36:27;;;;;;;31.40;19.60;;;;;;;1.60;84.71;101668.38;5015822;28;20045;-78
2021/12/21 08:38:54;;;;;;;27.73;17.63;;;;;;;1.64;84.74;101665.13;5012187;28;20042;-77
2021/12/21 08:41:20;;;;;;;33.55;18.75;;;;;;;1.53;85.20;101662.00;5009924;28;20058;-78
2021/12/21 08:43:46;;;;;;;30.50;17.67;;;;;;;1.58;85.13;101667.44;5013085;28;20025;-78
2021/12/21 08:46:11;;;;;;;31.52;18.75;;;;;;;1.66;84.89;101667.00;5011620;28;20058;-77
2021/12/21 08:48:37;;;;;;;30.42;19.48;;;;;;;1.66;84.56;101664.38;5012322;28;20049;-78
2021/12/21 08:51:04;;;;;;;27.08;15.85;;;;;;;1.70;84.51;101676.75;5010896;28;20046;-77
2021/12/21 08:53:29;;;;;;;34.42;17.88;;;;;;;1.74;84.48;101672.56;5010509;28;20612;-78
2021/12/21 08:55:55;;;;;;;27.88;16.10;;;;;;;1.79;84.46;101678.00;5012882;28;20042;-78
2021/12/21 08:58:21;;;;;;;27.05;17.92;;;;;;;1.74;84.41;101678.66;5011092;28;20096;-78
2021/12/21 09:00:46;;;;;;;24.58;16.30;;;;;;;1.85;84.48;101680.88;5013427;28;20040;-77
2021/12/21 09:03:12;;;;;;;30.85;17.42;;;;;;;1.89;83.44;101677.63;5012111;28;20044;-78
2021/12/21 09:05:39;;;;;;;36.47;19.23;;;;;;;1.81;83.71;101674.66;5011985;28;20041;-77
2021/12/21 09:08:05;;;;;;;31.52;18.92;;;;;;;1.94;83.80;101677.00;5013231;28;20045;-78
2021/12/21 09:10:31;;;;;;;25.15;16.17;;;;;;;2.05;83.41;101677.50;5015110;28;20034;-77
2021/12/21 09:12:58;;;;;;;27.00;16.95;;;;;;;2.13;83.30;101675.25;5016712;28;20092;-77
2021/12/21 09:15:24;;;;;;;25.17;15.73;;;;;;;2.27;83.01;101681.97;5019131;28;20049;-78
2021/12/21 09:17:50;;;;;;;28.90;18.02;;;;;;;2.31;82.45;101678.72;5018645;28;20037;-77
2021/12/21 09:20:18;;;;;;;29.60;17.80;;;;;;;2.45;82.16;101670.63;5014324;28;20066;-78
2021/12/21 09:22:44;;;;;;;30.90;19.02;;;;;;;2.49;81.95;101677.75;5017371;28;20034;-77
2021/12/21 09:25:10;;;;;;;26.10;17.58;;;;;;;2.59;81.58;101674.72;5012885;28;20049;-78
2021/12/21 09:27:37;;;;;;;29.95;17.85;;;;;;;2.64;81.84;101675.81;5013354;28;20460;-78
2021/12/21 09:30:04;;;;;;;25.83;16.63;;;;;;;2.66;81.42;101676.78;5019005;28;20021;-77
2021/12/21 09:32:29;;;;;;;28.35;17.15;;;;;;;2.66;80.97;101686.34;5018716;28;20161;-78
2021/12/21 09:34:55;;;;;;;29.00;18.20;;;;;;;2.60;81.44;101680.03;5010212;28;20508;-77
2021/12/21 09:37:21;;;;;;;27.55;17.27;;;;;;;2.66;81.26;101675.91;5016508;28;20574;-77
2021/12/21 09:39:52;;;;;;;29.25;17.60;;;;;;;2.69;80.59;101686.47;5020862;28;20120;-78
2021/12/21 09:42:22;;;;;;;31.58;18.45;;;;;;;2.67;80.95;101683.78;5022695;28;20046;-78
2021/12/21 09:44:48;;;;;;;28.13;17.58;;;;;;;2.67;81.16;101683.78;5020659;28;20049;-78
2021/12/21 09:47:14;;;;;;;30.73;18.95;;;;;;;2.75;80.66;101682.44;5023480;28;20042;-77
2021/12/21 09:49:41;;;;;;;25.17;17.55;;;;;;;2.73;80.51;101677.97;5017295;28;20412;-78
2021/12/21 09:52:08;;;;;;;33.00;17.85;;;;;;;2.79;80.76;101676.50;5008988;28;20030;-76
2021/12/21 09:54:35;;;;;;;33.53;18.52;;;;;;;2.83;80.53;101677.56;5003721;28;20074;-75
2021/12/21 09:57:00;;;;;;;29.30;18.05;;;;;;;2.92;80.38;101672.72;5002317;28;20044;-76
2021/12/21 09:59:26;;;;;;;30.00;18.00;;;;;;;2.99;80.06;101677.38;5002628;28;20038;-76
2021/12/21 10:01:52;;;;;;;28.15;18.10;;;;;;;3.11;79.69;101676.09;5012387;28;20042;-76
2021/12/21 10:04:18;;;;;;;30.08;16.92;;;;;;;3.16;79.22;101674.59;5003366;28;20117;-76
2021/12/21 10:06:49;;;;;;;28.13;16.65;;;;;;;3.22;79.06;101674.84;5006771;28;20045;-76
2021/12/21 10:09:18;;;;;;;27.17;16.98;;;;;;;3.21;79.20;101667.84;5005936;28;20140;-76
2021/12/21 10:11:47;;;;;;;34.20;16.80;;;;;;;3.10;78.86;101679.56;4986498;28;20037;-76
2021/12/21 10:14:14;;;;;;;25.85;15.27;;;;;;;3.03;78.49;101674.06;5001805;28;20657;-76
2021/12/21 10:16:39;;;;;;;29.38;16.50;;;;;;;3.07;79.70;101680.31;5008551;28;20042;-75
2021/12/21 10:19:06;;;;;;;23.63;15.30;;;;;;;3.08;78.54;101667.31;5010521;28;20097;-78
2021/12/21 10:21:31;;;;;;;28.17;14.90;;;;;;;3.02;78.74;101667.06;5013862;28;20040;-76
2021/12/21 10:23:57;;;;;;;25.92;17.23;;;;;;;3.13;78.65;101666.63;5002695;28;20030;-76
2021/12/21 10:26:29;;;;;;;26.77;18.02;;;;;;;3.22;78.10;101664.41;5011414;28;20070;-76
2021/12/21 10:29:05;;;;;;;30.92;18.92;;;;;;;3.25;78.47;101664.56;5005827;28;20125;-78
2021/12/21 10:31:39;;;;;;;26.75;17.48;;;;;;;3.22;77.85;101661.78;5019229;28;20084;-76
2021/12/21 10:34:17;;;;;;;27.73;17.50;;;;;;;3.33;77.97;101657.94;5005624;28;20065;-76
2021/12/21 10:36:44;;;;;;;27.42;16.33;;;;;;;3.34;78.09;101662.31;5004143;28;20046;-76
2021/12/21 10:39:10;;;;;;;27.58;18.08;;;;;;;3.39;78.42;101652.94;5001584;28;20491;-77
2021/12/21 10:41:42;;;;;;;29.63;18.45;;;;;;;3.44;78.03;101650.53;5003999;28;20041;-76
2021/12/21 10:44:13;;;;;;;28.73;17.60;;;;;;;3.41;77.60;101655.63;5001313;28;20034;-76
2021/12/21 10:46:42;;;;;;;26.77;16.85;;;;;;;3.28;77.09;101660.34;4999551;28;20049;-76
2021/12/21 10:49:12;;;;;;;31.88;16.65;;;;;;;3.20;77.88;101660.88;5027582;23;20088;-71
2021/12/21 10:51:57;;;;;;;30.35;16.83;;;;;;;3.09;77.97;101657.78;5022171;28;20128;-71
2021/12/21 10:54:34;;;;;;;26.60;17.17;;;;;;;3.16;77.94;101657.22;5027710;28;20052;-71
2021/12/21 10:57:06;;;;;;;31.73;17.38;;;;;;;3.11;78.04;101656.13;5024849;28;20385;-71
2021/12/21 10:59:33;;;;;;;30.98;17.50;;;;;;;3.08;77.67;101654.28;5020208;28;20060;-72
2021/12/21 11:02:12;;;;;;;29.25;17.85;;;;;;;3.09;78.54;101652.56;5023918;28;20029;-71
2021/12/21 11:04:40;;;;;;;25.35;16.60;;;;;;;3.22;78.23;101659.19;5021410;28;20579;-71
2021/12/21 11:07:24;;;;;;;30.25;18.02;;;;;;;3.18;77.71;101652.97;5022461;28;20037;-71
2021/12/21 11:10:16;;;;;;;30.27;17.63;;;;;;;3.15;77.89;101654.56;5025840;28;20041;-71
2021/12/21 11:12:50;;;;;;;23.85;17.25;;;;;;;3.11;78.34;101652.63;5019534;28;20103;-72
2021/12/21 11:15:31;;;;;;;27.08;16.85;;;;;;;3.14;78.01;101637.09;5023292;28;20036;-71
2021/12/21 11:18:04;;;;;;;28.05;17.88;;;;;;;2.94;78.04;101631.97;5021166;28;20041;-71
2021/12/21 11:20:30;;;;;;;24.50;17.00;;;;;;;2.94;78.94;101629.34;5021571;28;20120;-71
2021/12/21 11:22:56;;;;;;;25.60;16.55;;;;;;;2.99;78.82;101630.44;5021651;28;20128;-71
2021/12/21 11:25:22;;;;;;;29.92;16.42;;;;;;;2.93;78.55;101630.16;5022999;28;20041;-71
2021/12/21 11:27:48;;;;;;;29.48;16.58;;;;;;;2.86;79.09;101625.53;5025481;28;20025;-71
2021/12/21 11:30:18;;;;;;;24.45;14.82;;;;;;;2.86;79.80;101622.91;5019690;28;20403;-71
2021/12/21 11:32:48;;;;;;;26.83;15.13;;;;;;;2.99;79.52;101622.63;5022924;28;20065;-71
2021/12/21 11:37:45;;;;;;;21.15;13.80;;;;;;;3.03;79.42;101615.78;5022448;28;20072;-71
2021/12/21 11:40:14;;;;;;;24.30;14.15;;;;;;;3.15;78.83;101620.66;5024887;28;20037;-72
2021/12/21 11:42:52;;;;;;;21.67;11.88;;;;;;;3.08;77.71;101617.75;5021018;28;20065;-71
2021/12/21 11:45:28;;;;;;;24.40;13.63;;;;;;;3.02;78.47;101619.25;5020416;28;20479;-72
2021/12/21 11:48:00;;;;;;;21.52;12.70;;;;;;;3.06;78.65;101622.00;5019723;28;20033;-72
2021/12/21 11:50:26;;;;;;;22.30;12.70;;;;;;;3.15;78.92;101618.91;5019705;28;20049;-71
2021/12/21 11:52:59;;;;;;;24.40;13.35;;;;;;;3.17;77.89;101612.06;5028980;28;20041;-72
2021/12/21 11:55:26;;;;;;;23.10;11.95;;;;;;;3.19;77.77;101612.97;5023677;28;20070;-72
2021/12/21 11:57:56;;;;;;;15.48;9.02;;;;;;;3.02;76.90;101621.84;5026438;28;20041;-72
2021/12/21 12:00:31;;;;;;;23.77;11.48;;;;;;;2.97;77.03;101619.03;5020743;28;20516;-72
2021/12/21 12:03:09;;;;;;;20.33;10.75;;;;;;;3.08;77.39;101615.16;5020834;28;20120;-72
2021/12/21 12:05:34;;;;;;;16.15;10.30;;;;;;;3.18;76.94;101610.34;5021300;28;20048;-72
2021/12/21 12:08:12;;;;;;;23.75;10.52;;;;;;;3.23;76.91;101611.41;5019561;28;20037;-71
2021/12/21 12:10:54;;;;;;;18.58;10.35;;;;;;;3.33;77.03;101618.78;5020711;28;20065;-72
2021/12/21 12:13:36;;;;;;;18.48;11.00;;;;;;;3.40;76.23;101619.91;5025066;28;20076;-71
2021/12/21 12:16:05;;;;;;;;;;;;;;;3.29;76.45;101612.53;5023554;28;20043;-72
2021/12/21 12:18:34;;;;;;;21.02;10.90;;;;;;;3.29;76.59;101611.66;5025178;28;19959;-72